sensor_id;sensor_type;location;lat;lon;timestamp;temperature;humidity
14755;DHT22;7469;50.906;6.952;2023-12-07T00:00:55;2.20;99.90
14755;DHT22;7469;50.906;6.952;2023-12-07T00:03:25;2.20;99.90
14755;DHT22;7469;50.906;6.952;2023-12-07T00:05:53;2.20;99.90
14755;DHT22;7469;50.906;6.952;2023-12-07T00:08:21;2.10;99.90
14755;DHT22;7469;50.906;6.952;2023-12-07T00:10:48;2.10;99.90
14755;DHT22;7469;50.906;6.952;2023-12-07T00:13:17;2.10;99.90
14755;DHT22;7469;50.906;6.952;2023-12-07T00:15:45;2.10;99.90
14755;DHT22;7469;50.906;6.952;2023-12-07T00:18:13;2.10;99.90
14755;DHT22;7469;50.906;6.952;2023-12-07T00:20:42;2.20;99.90
14755;DHT22;7469;50.906;6.952;2023-12-07T00:23:10;2.20;99.90
14755;DHT22;7469;50.906;6.952;2023-12-07T00:25:38;2.10;99.90
14755;DHT22;7469;50.906;6.952;2023-12-07T00:28:06;2.00;99.90
14755;DHT22;7469;50.906;6.952;2023-12-07T00:30:34;2.00;99.90
14755;DHT22;7469;50.906;6.952;2023-12-07T00:33:03;1.90;99.90
14755;DHT22;7469;50.906;6.952;2023-12-07T00:35:30;1.90;99.90
14755;DHT22;7469;50.906;6.952;2023-12-07T00:38:00;1.90;99.90
14755;DHT22;7469;50.906;6.952;2023-12-07T00:40:28;1.90;99.90
14755;DHT22;7469;50.906;6.952;2023-12-07T00:42:57;1.80;99.90
14755;DHT22;7469;50.906;6.952;2023-12-07T00:45:25;1.80;99.90
14755;DHT22;7469;50.906;6.952;2023-12-07T00:47:53;1.90;99.90
14755;DHT22;7469;50.906;6.952;2023-12-07T00:50:21;1.80;99.90
14755;DHT22;7469;50.906;6.952;2023-12-07T00:52:49;1.80;99.90
14755;DHT22;7469;50.906;6.952;2023-12-07T00:55:19;1.70;99.90
14755;DHT22;7469;50.906;6.952;2023-12-07T00:57:46;1.70;99.90
14755;DHT22;7469;50.906;6.952;2023-12-07T01:00:15;1.70;99.90
14755;DHT22;7469;50.906;6.952;2023-12-07T01:02:43;1.80;99.90
14755;DHT22;7469;50.906;6.952;2023-12-07T01:05:11;1.80;99.90
14755;DHT22;7469;50.906;6.952;2023-12-07T01:07:39;1.80;99.90
14755;DHT22;7469;50.906;6.952;2023-12-07T01:10:08;1.70;99.90
14755;DHT22;7469;50.906;6.952;2023-12-07T01:12:38;1.70;99.90
14755;DHT22;7469;50.906;6.952;2023-12-07T01:15:06;1.70;99.90
14755;DHT22;7469;50.906;6.952;2023-12-07T01:17:34;1.70;99.90
14755;DHT22;7469;50.906;6.952;2023-12-07T01:20:03;1.70;99.90
14755;DHT22;7469;50.906;6.952;2023-12-07T01:22:33;1.60;99.90
14755;DHT22;7469;50.906;6.952;2023-12-07T01:25:01;1.60;99.90
14755;DHT22;7469;50.906;6.952;2023-12-07T01:27:30;1.60;99.90
14755;DHT22;7469;50.906;6.952;2023-12-07T01:29:59;1.60;99.90
14755;DHT22;7469;50.906;6.952;2023-12-07T01:32:27;1.50;99.90
14755;DHT22;7469;50.906;6.952;2023-12-07T01:34:55;1.40;99.90
14755;DHT22;7469;50.906;6.952;2023-12-07T01:37:23;1.40;99.90
14755;DHT22;7469;50.906;6.952;2023-12-07T01:39:51;1.50;99.90
14755;DHT22;7469;50.906;6.952;2023-12-07T01:42:19;1.50;99.90
14755;DHT22;7469;50.906;6.952;2023-12-07T01:44:47;1.50;99.90
14755;DHT22;7469;50.906;6.952;2023-12-07T01:47:17;1.50;99.90
14755;DHT22;7469;50.906;6.952;2023-12-07T01:49:45;1.50;99.90
14755;DHT22;7469;50.906;6.952;2023-12-07T01:52:13;1.50;99.90
14755;DHT22;7469;50.906;6.952;2023-12-07T01:54:42;1.50;99.90
14755;DHT22;7469;50.906;6.952;2023-12-07T01:57:10;1.50;99.90
14755;DHT22;7469;50.906;6.952;2023-12-07T01:59:38;1.50;99.90
14755;DHT22;7469;50.906;6.952;2023-12-07T02:02:06;1.50;99.90
14755;DHT22;7469;50.906;6.952;2023-12-07T02:04:36;1.50;99.90
14755;DHT22;7469;50.906;6.952;2023-12-07T02:07:04;1.50;99.90
14755;DHT22;7469;50.906;6.952;2023-12-07T02:09:33;1.50;99.90
14755;DHT22;7469;50.906;6.952;2023-12-07T02:12:01;1.50;99.90
14755;DHT22;7469;50.906;6.952;2023-12-07T02:14:29;1.50;99.90
14755;DHT22;7469;50.906;6.952;2023-12-07T02:17:01;1.50;99.90
14755;DHT22;7469;50.906;6.952;2023-12-07T02:19:49;1.50;99.90
14755;DHT22;7469;50.906;6.952;2023-12-07T02:22:25;1.50;99.90
14755;DHT22;7469;50.906;6.952;2023-12-07T02:25:05;1.50;99.90
14755;DHT22;7469;50.906;6.952;2023-12-07T02:27:37;1.50;99.90
14755;DHT22;7469;50.906;6.952;2023-12-07T02:30:07;1.50;99.90
14755;DHT22;7469;50.906;6.952;2023-12-07T02:32:36;1.50;99.90
14755;DHT22;7469;50.906;6.952;2023-12-07T02:35:05;1.50;99.90
14755;DHT22;7469;50.906;6.952;2023-12-07T02:37:35;1.60;99.90
14755;DHT22;7469;50.906;6.952;2023-12-07T02:40:06;1.60;99.90
14755;DHT22;7469;50.906;6.952;2023-12-07T02:42:39;1.60;99.90
14755;DHT22;7469;50.906;6.952;2023-12-07T02:45:10;1.50;99.90
14755;DHT22;7469;50.906;6.952;2023-12-07T02:47:38;1.50;99.90
14755;DHT22;7469;50.906;6.952;2023-12-07T02:50:07;1.50;99.90
14755;DHT22;7469;50.906;6.952;2023-12-07T02:52:35;1.50;99.90
14755;DHT22;7469;50.906;6.952;2023-12-07T02:55:05;1.50;99.90
14755;DHT22;7469;50.906;6.952;2023-12-07T02:57:33;1.60;99.90
14755;DHT22;7469;50.906;6.952;2023-12-07T03:00:03;1.60;99.90
14755;DHT22;7469;50.906;6.952;2023-12-07T03:02:33;1.60;99.90
14755;DHT22;7469;50.906;6.952;2023-12-07T03:05:02;1.60;99.90
14755;DHT22;7469;50.906;6.952;2023-12-07T03:07:30;1.60;99.90
14755;DHT22;7469;50.906;6.952;2023-12-07T03:09:58;1.60;99.90
14755;DHT22;7469;50.906;6.952;2023-12-07T03:12:26;1.70;99.90
14755;DHT22;7469;50.906;6.952;2023-12-07T03:14:54;1.70;99.90
14755;DHT22;7469;50.906;6.952;2023-12-07T03:17:23;1.80;99.90
14755;DHT22;7469;50.906;6.952;2023-12-07T03:19:52;1.80;99.90
14755;DHT22;7469;50.906;6.952;2023-12-07T03:22:20;1.90;99.90
14755;DHT22;7469;50.906;6.952;2023-12-07T03:24:51;1.90;99.90
14755;DHT22;7469;50.906;6.952;2023-12-07T03:27:19;1.90;99.90
14755;DHT22;7469;50.906;6.952;2023-12-07T03:29:46;1.90;99.90
14755;DHT22;7469;50.906;6.952;2023-12-07T03:32:14;1.90;99.90
14755;DHT22;7469;50.906;6.952;2023-12-07T03:34:43;2.00;99.90
14755;DHT22;7469;50.906;6.952;2023-12-07T03:37:11;2.00;99.90
14755;DHT22;7469;50.906;6.952;2023-12-07T03:39:39;2.00;99.90
14755;DHT22;7469;50.906;6.952;2023-12-07T03:42:07;2.00;99.90
14755;DHT22;7469;50.906;6.952;2023-12-07T03:44:55;2.00;99.90
14755;DHT22;7469;50.906;6.952;2023-12-07T03:47:23;2.00;99.90
14755;DHT22;7469;50.906;6.952;2023-12-07T03:49:53;2.00;99.90
14755;DHT22;7469;50.906;6.952;2023-12-07T03:52:21;2.00;99.90
14755;DHT22;7469;50.906;6.952;2023-12-07T03:54:49;2.00;99.90
14755;DHT22;7469;50.906;6.952;2023-12-07T03:57:17;2.10;99.90
14755;DHT22;7469;50.906;6.952;2023-12-07T03:59:45;2.10;99.90
14755;DHT22;7469;50.906;6.952;2023-12-07T04:02:13;2.20;99.90
14755;DHT22;7469;50.906;6.952;2023-12-07T04:04:41;2.20;99.90
14755;DHT22;7469;50.906;6.952;2023-12-07T04:07:10;2.20;99.90
14755;DHT22;7469;50.906;6.952;2023-12-07T04:09:38;2.30;99.90
14755;DHT22;7469;50.906;6.952;2023-12-07T04:12:07;2.30;99.90
14755;DHT22;7469;50.906;6.952;2023-12-07T04:14:34;2.20;99.90
14755;DHT22;7469;50.906;6.952;2023-12-07T04:17:03;2.20;99.90
14755;DHT22;7469;50.906;6.952;2023-12-07T04:19:31;2.20;99.90
14755;DHT22;7469;50.906;6.952;2023-12-07T04:21:59;2.20;99.90
14755;DHT22;7469;50.906;6.952;2023-12-07T04:24:28;2.20;99.90
14755;DHT22;7469;50.906;6.952;2023-12-07T04:26:56;2.20;99.90
14755;DHT22;7469;50.906;6.952;2023-12-07T04:29:24;2.20;99.90
14755;DHT22;7469;50.906;6.952;2023-12-07T04:31:52;2.20;99.90
14755;DHT22;7469;50.906;6.952;2023-12-07T04:34:20;2.30;99.90
14755;DHT22;7469;50.906;6.952;2023-12-07T04:36:49;2.30;99.90
14755;DHT22;7469;50.906;6.952;2023-12-07T04:39:17;2.30;99.90
14755;DHT22;7469;50.906;6.952;2023-12-07T04:41:46;2.30;99.90
14755;DHT22;7469;50.906;6.952;2023-12-07T04:44:14;2.40;99.90
14755;DHT22;7469;50.906;6.952;2023-12-07T04:46:42;2.40;99.90
14755;DHT22;7469;50.906;6.952;2023-12-07T04:49:10;2.40;99.90
14755;DHT22;7469;50.906;6.952;2023-12-07T04:51:39;2.50;99.90
14755;DHT22;7469;50.906;6.952;2023-12-07T04:54:08;2.50;99.90
14755;DHT22;7469;50.906;6.952;2023-12-07T04:56:46;2.50;99.90
14755;DHT22;7469;50.906;6.952;2023-12-07T04:59:15;2.60;99.90
14755;DHT22;7469;50.906;6.952;2023-12-07T05:01:44;2.60;99.90
14755;DHT22;7469;50.906;6.952;2023-12-07T05:04:12;2.60;99.90
14755;DHT22;7469;50.906;6.952;2023-12-07T05:06:41;2.60;99.90
14755;DHT22;7469;50.906;6.952;2023-12-07T05:09:08;2.60;99.90
14755;DHT22;7469;50.906;6.952;2023-12-07T05:11:37;2.60;99.90
14755;DHT22;7469;50.906;6.952;2023-12-07T05:14:06;2.60;99.90
14755;DHT22;7469;50.906;6.952;2023-12-07T05:16:34;2.60;99.90
14755;DHT22;7469;50.906;6.952;2023-12-07T05:19:02;2.60;99.90
14755;DHT22;7469;50.906;6.952;2023-12-07T05:21:30;2.60;99.90
14755;DHT22;7469;50.906;6.952;2023-12-07T05:23:58;2.60;99.90
14755;DHT22;7469;50.906;6.952;2023-12-07T05:26:26;2.60;99.90
14755;DHT22;7469;50.906;6.952;2023-12-07T05:28:56;2.60;99.90
14755;DHT22;7469;50.906;6.952;2023-12-07T05:31:26;2.60;99.90
14755;DHT22;7469;50.906;6.952;2023-12-07T05:33:54;2.50;99.90
14755;DHT22;7469;50.906;6.952;2023-12-07T05:36:22;2.50;99.90
14755;DHT22;7469;50.906;6.952;2023-12-07T05:38:50;2.40;99.90
14755;DHT22;7469;50.906;6.952;2023-12-07T05:41:18;2.50;99.90
14755;DHT22;7469;50.906;6.952;2023-12-07T05:43:46;2.40;99.90
14755;DHT22;7469;50.906;6.952;2023-12-07T05:46:15;2.30;99.90
14755;DHT22;7469;50.906;6.952;2023-12-07T05:48:45;2.30;99.90
14755;DHT22;7469;50.906;6.952;2023-12-07T05:51:13;2.30;99.90
14755;DHT22;7469;50.906;6.952;2023-12-07T05:53:41;2.20;99.90
14755;DHT22;7469;50.906;6.952;2023-12-07T05:56:09;2.20;99.90
14755;DHT22;7469;50.906;6.952;2023-12-07T05:58:38;2.20;99.90
14755;DHT22;7469;50.906;6.952;2023-12-07T06:01:06;2.20;99.90
14755;DHT22;7469;50.906;6.952;2023-12-07T06:03:34;2.20;99.90
14755;DHT22;7469;50.906;6.952;2023-12-07T06:06:05;2.20;99.90
14755;DHT22;7469;50.906;6.952;2023-12-07T06:08:33;2.20;99.90
14755;DHT22;7469;50.906;6.952;2023-12-07T06:11:01;2.20;99.90
14755;DHT22;7469;50.906;6.952;2023-12-07T06:13:29;2.10;99.90
14755;DHT22;7469;50.906;6.952;2023-12-07T06:15:57;2.10;99.90
14755;DHT22;7469;50.906;6.952;2023-12-07T06:18:25;2.10;99.90
14755;DHT22;7469;50.906;6.952;2023-12-07T06:20:53;2.10;99.90
14755;DHT22;7469;50.906;6.952;2023-12-07T06:23:22;2.10;99.90
14755;DHT22;7469;50.906;6.952;2023-12-07T06:25:50;2.00;99.90
14755;DHT22;7469;50.906;6.952;2023-12-07T06:28:18;2.00;99.90
14755;DHT22;7469;50.906;6.952;2023-12-07T06:30:46;2.00;99.90
14755;DHT22;7469;50.906;6.952;2023-12-07T06:33:14;1.90;99.90
14755;DHT22;7469;50.906;6.952;2023-12-07T06:35:45;1.90;99.90
14755;DHT22;7469;50.906;6.952;2023-12-07T06:38:13;1.80;99.90
14755;DHT22;7469;50.906;6.952;2023-12-07T06:40:43;1.80;99.90
14755;DHT22;7469;50.906;6.952;2023-12-07T06:43:11;1.80;99.90
14755;DHT22;7469;50.906;6.952;2023-12-07T06:45:39;1.80;99.90
14755;DHT22;7469;50.906;6.952;2023-12-07T06:48:07;1.70;99.90
14755;DHT22;7469;50.906;6.952;2023-12-07T06:50:35;1.70;99.90
14755;DHT22;7469;50.906;6.952;2023-12-07T06:53:03;1.70;99.90
14755;DHT22;7469;50.906;6.952;2023-12-07T06:55:31;1.70;99.90
14755;DHT22;7469;50.906;6.952;2023-12-07T06:58:06;1.70;99.90
14755;DHT22;7469;50.906;6.952;2023-12-07T07:00:34;1.70;99.90
14755;DHT22;7469;50.906;6.952;2023-12-07T07:03:02;1.60;99.90
14755;DHT22;7469;50.906;6.952;2023-12-07T07:05:30;1.60;99.90
14755;DHT22;7469;50.906;6.952;2023-12-07T07:07:58;1.60;99.90
14755;DHT22;7469;50.906;6.952;2023-12-07T07:10:26;1.60;99.90
14755;DHT22;7469;50.906;6.952;2023-12-07T07:12:54;1.60;99.90
14755;DHT22;7469;50.906;6.952;2023-12-07T07:15:24;1.60;99.90
14755;DHT22;7469;50.906;6.952;2023-12-07T07:17:52;1.60;99.90
14755;DHT22;7469;50.906;6.952;2023-12-07T07:20:20;1.60;99.90
14755;DHT22;7469;50.906;6.952;2023-12-07T07:22:48;1.60;99.90
14755;DHT22;7469;50.906;6.952;2023-12-07T07:25:17;1.60;99.90
14755;DHT22;7469;50.906;6.952;2023-12-07T07:27:46;1.50;99.90
14755;DHT22;7469;50.906;6.952;2023-12-07T07:30:14;1.50;99.90
14755;DHT22;7469;50.906;6.952;2023-12-07T07:32:44;1.50;99.90
14755;DHT22;7469;50.906;6.952;2023-12-07T07:35:12;1.50;99.90
14755;DHT22;7469;50.906;6.952;2023-12-07T07:37:41;1.50;99.90
14755;DHT22;7469;50.906;6.952;2023-12-07T07:40:10;1.50;99.90
14755;DHT22;7469;50.906;6.952;2023-12-07T07:42:38;1.50;99.90
14755;DHT22;7469;50.906;6.952;2023-12-07T07:45:08;1.50;99.90
14755;DHT22;7469;50.906;6.952;2023-12-07T07:47:36;1.50;99.90
14755;DHT22;7469;50.906;6.952;2023-12-07T07:50:06;1.50;99.90
14755;DHT22;7469;50.906;6.952;2023-12-07T07:52:35;1.50;99.90
14755;DHT22;7469;50.906;6.952;2023-12-07T07:55:04;1.50;99.90
14755;DHT22;7469;50.906;6.952;2023-12-07T07:57:32;1.40;99.90
14755;DHT22;7469;50.906;6.952;2023-12-07T08:00:00;1.40;99.90
14755;DHT22;7469;50.906;6.952;2023-12-07T08:02:28;1.40;99.90
14755;DHT22;7469;50.906;6.952;2023-12-07T08:04:56;1.40;99.90
14755;DHT22;7469;50.906;6.952;2023-12-07T08:07:25;1.40;99.90
14755;DHT22;7469;50.906;6.952;2023-12-07T08:09:54;1.40;99.90
14755;DHT22;7469;50.906;6.952;2023-12-07T08:12:22;1.40;99.90
14755;DHT22;7469;50.906;6.952;2023-12-07T08:14:50;1.50;99.90
14755;DHT22;7469;50.906;6.952;2023-12-07T08:17:18;1.50;99.90
14755;DHT22;7469;50.906;6.952;2023-12-07T08:19:46;1.50;99.90
14755;DHT22;7469;50.906;6.952;2023-12-07T08:22:16;1.50;99.90
14755;DHT22;7469;50.906;6.952;2023-12-07T08:24:45;1.60;99.90
14755;DHT22;7469;50.906;6.952;2023-12-07T08:27:26;1.60;99.90
14755;DHT22;7469;50.906;6.952;2023-12-07T08:29:54;1.70;99.90
14755;DHT22;7469;50.906;6.952;2023-12-07T08:32:22;1.70;99.90
14755;DHT22;7469;50.906;6.952;2023-12-07T08:34:52;1.80;99.90
14755;DHT22;7469;50.906;6.952;2023-12-07T08:37:22;1.80;99.90
14755;DHT22;7469;50.906;6.952;2023-12-07T08:39:51;1.90;99.90
14755;DHT22;7469;50.906;6.952;2023-12-07T08:42:19;2.00;99.90
14755;DHT22;7469;50.906;6.952;2023-12-07T08:44:47;2.10;99.90
14755;DHT22;7469;50.906;6.952;2023-12-07T08:47:15;2.20;99.90
14755;DHT22;7469;50.906;6.952;2023-12-07T08:49:43;2.30;99.90
14755;DHT22;7469;50.906;6.952;2023-12-07T08:52:11;2.40;99.90
14755;DHT22;7469;50.906;6.952;2023-12-07T08:54:58;2.60;99.90
14755;DHT22;7469;50.906;6.952;2023-12-07T08:57:26;2.90;99.90
14755;DHT22;7469;50.906;6.952;2023-12-07T08:59:54;3.50;99.90
14755;DHT22;7469;50.906;6.952;2023-12-07T09:02:23;4.00;99.90
14755;DHT22;7469;50.906;6.952;2023-12-07T09:05:08;4.50;99.90
14755;DHT22;7469;50.906;6.952;2023-12-07T09:07:36;5.00;99.90
14755;DHT22;7469;50.906;6.952;2023-12-07T09:10:07;5.40;99.90
14755;DHT22;7469;50.906;6.952;2023-12-07T09:12:36;5.70;99.90
14755;DHT22;7469;50.906;6.952;2023-12-07T09:15:07;5.90;99.90
14755;DHT22;7469;50.906;6.952;2023-12-07T09:17:37;6.30;99.90
14755;DHT22;7469;50.906;6.952;2023-12-07T09:20:07;6.50;99.90
14755;DHT22;7469;50.906;6.952;2023-12-07T09:22:40;6.60;99.90
14755;DHT22;7469;50.906;6.952;2023-12-07T09:25:10;6.80;99.90
14755;DHT22;7469;50.906;6.952;2023-12-07T09:27:39;6.80;99.90
14755;DHT22;7469;50.906;6.952;2023-12-07T09:30:08;6.90;99.90
14755;DHT22;7469;50.906;6.952;2023-12-07T09:32:39;7.10;99.90
14755;DHT22;7469;50.906;6.952;2023-12-07T09:35:07;7.10;99.90
14755;DHT22;7469;50.906;6.952;2023-12-07T09:37:41;7.10;99.90
14755;DHT22;7469;50.906;6.952;2023-12-07T09:40:14;7.20;99.90
14755;DHT22;7469;50.906;6.952;2023-12-07T09:42:44;7.20;99.90
14755;DHT22;7469;50.906;6.952;2023-12-07T09:45:12;7.20;99.90
14755;DHT22;7469;50.906;6.952;2023-12-07T09:47:42;7.30;99.90
14755;DHT22;7469;50.906;6.952;2023-12-07T09:50:11;7.40;99.90
14755;DHT22;7469;50.906;6.952;2023-12-07T09:52:40;7.60;99.90
14755;DHT22;7469;50.906;6.952;2023-12-07T09:55:20;7.50;99.90
14755;DHT22;7469;50.906;6.952;2023-12-07T09:57:49;7.60;99.90
14755;DHT22;7469;50.906;6.952;2023-12-07T10:00:18;7.70;99.90
14755;DHT22;7469;50.906;6.952;2023-12-07T10:02:46;7.60;99.90
14755;DHT22;7469;50.906;6.952;2023-12-07T10:05:15;7.60;99.90
14755;DHT22;7469;50.906;6.952;2023-12-07T10:07:44;7.90;99.90
14755;DHT22;7469;50.906;6.952;2023-12-07T10:10:15;7.70;99.90
14755;DHT22;7469;50.906;6.952;2023-12-07T10:12:51;7.50;99.90
14755;DHT22;7469;50.906;6.952;2023-12-07T10:15:21;7.10;99.90
14755;DHT22;7469;50.906;6.952;2023-12-07T10:17:51;6.90;99.90
14755;DHT22;7469;50.906;6.952;2023-12-07T10:20:20;6.80;99.90
14755;DHT22;7469;50.906;6.952;2023-12-07T10:23:01;6.90;99.90
14755;DHT22;7469;50.906;6.952;2023-12-07T10:25:30;7.10;99.90
14755;DHT22;7469;50.906;6.952;2023-12-07T10:28:00;7.10;99.90
14755;DHT22;7469;50.906;6.952;2023-12-07T10:30:33;7.10;99.90
14755;DHT22;7469;50.906;6.952;2023-12-07T10:33:03;7.20;99.90
14755;DHT22;7469;50.906;6.952;2023-12-07T10:35:31;7.20;99.90
14755;DHT22;7469;50.906;6.952;2023-12-07T10:37:59;7.30;99.90
14755;DHT22;7469;50.906;6.952;2023-12-07T10:40:27;7.40;99.90
14755;DHT22;7469;50.906;6.952;2023-12-07T10:42:57;7.80;99.90
14755;DHT22;7469;50.906;6.952;2023-12-07T10:45:29;8.00;99.90
14755;DHT22;7469;50.906;6.952;2023-12-07T10:48:02;7.60;99.90
14755;DHT22;7469;50.906;6.952;2023-12-07T10:50:34;7.20;99.90
14755;DHT22;7469;50.906;6.952;2023-12-07T10:53:06;7.20;99.90
14755;DHT22;7469;50.906;6.952;2023-12-07T10:55:42;7.20;99.90
14755;DHT22;7469;50.906;6.952;2023-12-07T10:58:15;7.20;99.90
14755;DHT22;7469;50.906;6.952;2023-12-07T11:00:45;7.10;99.90
14755;DHT22;7469;50.906;6.952;2023-12-07T11:03:16;6.90;99.90
14755;DHT22;7469;50.906;6.952;2023-12-07T11:05:46;6.70;99.90
14755;DHT22;7469;50.906;6.952;2023-12-07T11:08:21;6.40;99.90
14755;DHT22;7469;50.906;6.952;2023-12-07T11:10:55;6.40;99.90
14755;DHT22;7469;50.906;6.952;2023-12-07T11:13:29;6.30;99.90
14755;DHT22;7469;50.906;6.952;2023-12-07T11:16:00;6.40;99.90
14755;DHT22;7469;50.906;6.952;2023-12-07T11:18:28;6.30;99.90
14755;DHT22;7469;50.906;6.952;2023-12-07T11:20:57;6.40;99.90
14755;DHT22;7469;50.906;6.952;2023-12-07T11:23:27;6.70;99.90
14755;DHT22;7469;50.906;6.952;2023-12-07T11:25:57;6.60;99.90
14755;DHT22;7469;50.906;6.952;2023-12-07T11:28:35;6.50;99.90
14755;DHT22;7469;50.906;6.952;2023-12-07T11:31:06;6.10;99.90
14755;DHT22;7469;50.906;6.952;2023-12-07T11:33:37;6.00;99.90
14755;DHT22;7469;50.906;6.952;2023-12-07T11:36:07;5.80;99.90
14755;DHT22;7469;50.906;6.952;2023-12-07T11:38:36;5.90;99.90
14755;DHT22;7469;50.906;6.952;2023-12-07T11:41:05;6.00;99.90
14755;DHT22;7469;50.906;6.952;2023-12-07T11:43:42;6.10;99.90
14755;DHT22;7469;50.906;6.952;2023-12-07T11:46:14;6.20;99.90
14755;DHT22;7469;50.906;6.952;2023-12-07T11:48:48;6.50;99.90
14755;DHT22;7469;50.906;6.952;2023-12-07T11:51:17;6.40;99.90
14755;DHT22;7469;50.906;6.952;2023-12-07T11:53:45;6.30;99.90
14755;DHT22;7469;50.906;6.952;2023-12-07T11:56:17;6.20;99.90
14755;DHT22;7469;50.906;6.952;2023-12-07T11:58:48;6.20;99.90
14755;DHT22;7469;50.906;6.952;2023-12-07T12:01:18;6.50;99.90
14755;DHT22;7469;50.906;6.952;2023-12-07T12:03:47;6.60;99.90
14755;DHT22;7469;50.906;6.952;2023-12-07T12:06:15;6.60;99.90
14755;DHT22;7469;50.906;6.952;2023-12-07T12:08:44;6.70;99.90
14755;DHT22;7469;50.906;6.952;2023-12-07T12:11:12;6.80;99.90
14755;DHT22;7469;50.906;6.952;2023-12-07T12:13:40;6.50;99.90
14755;DHT22;7469;50.906;6.952;2023-12-07T12:16:09;6.10;99.90
14755;DHT22;7469;50.906;6.952;2023-12-07T12:18:38;5.90;99.90
14755;DHT22;7469;50.906;6.952;2023-12-07T12:21:07;5.70;99.90
14755;DHT22;7469;50.906;6.952;2023-12-07T12:23:36;5.60;99.90
14755;DHT22;7469;50.906;6.952;2023-12-07T12:26:07;5.40;99.90
14755;DHT22;7469;50.906;6.952;2023-12-07T12:28:37;5.20;99.90
14755;DHT22;7469;50.906;6.952;2023-12-07T12:31:11;5.10;99.90
14755;DHT22;7469;50.906;6.952;2023-12-07T12:33:41;5.00;99.90
14755;DHT22;7469;50.906;6.952;2023-12-07T12:36:10;5.00;99.90
14755;DHT22;7469;50.906;6.952;2023-12-07T12:38:38;5.00;99.90
14755;DHT22;7469;50.906;6.952;2023-12-07T12:41:10;5.00;99.90
14755;DHT22;7469;50.906;6.952;2023-12-07T12:43:39;5.00;99.90
14755;DHT22;7469;50.906;6.952;2023-12-07T12:46:07;5.00;99.90
14755;DHT22;7469;50.906;6.952;2023-12-07T12:48:38;5.00;99.90
14755;DHT22;7469;50.906;6.952;2023-12-07T12:51:21;5.00;99.90
14755;DHT22;7469;50.906;6.952;2023-12-07T12:53:51;5.00;99.90
14755;DHT22;7469;50.906;6.952;2023-12-07T12:56:20;5.00;99.90
14755;DHT22;7469;50.906;6.952;2023-12-07T12:58:48;4.90;99.90
14755;DHT22;7469;50.906;6.952;2023-12-07T13:01:17;4.90;99.90
14755;DHT22;7469;50.906;6.952;2023-12-07T13:03:45;4.90;99.90
14755;DHT22;7469;50.906;6.952;2023-12-07T13:06:14;4.90;99.90
14755;DHT22;7469;50.906;6.952;2023-12-07T13:08:46;5.10;99.90
14755;DHT22;7469;50.906;6.952;2023-12-07T13:11:15;5.10;99.90
14755;DHT22;7469;50.906;6.952;2023-12-07T13:13:44;5.10;99.90
14755;DHT22;7469;50.906;6.952;2023-12-07T13:16:12;5.00;99.90
14755;DHT22;7469;50.906;6.952;2023-12-07T13:18:41;5.00;99.90
14755;DHT22;7469;50.906;6.952;2023-12-07T13:21:09;5.00;99.90
14755;DHT22;7469;50.906;6.952;2023-12-07T13:23:38;5.00;99.90
14755;DHT22;7469;50.906;6.952;2023-12-07T13:26:07;5.00;99.90
14755;DHT22;7469;50.906;6.952;2023-12-07T13:28:35;5.00;99.90
14755;DHT22;7469;50.906;6.952;2023-12-07T13:31:04;4.90;99.90
14755;DHT22;7469;50.906;6.952;2023-12-07T13:33:32;4.90;99.90
14755;DHT22;7469;50.906;6.952;2023-12-07T13:36:15;5.00;99.90
14755;DHT22;7469;50.906;6.952;2023-12-07T13:38:45;4.90;99.90
14755;DHT22;7469;50.906;6.952;2023-12-07T13:41:15;4.80;99.90
14755;DHT22;7469;50.906;6.952;2023-12-07T13:43:43;4.80;99.90
14755;DHT22;7469;50.906;6.952;2023-12-07T13:46:11;4.70;99.90
14755;DHT22;7469;50.906;6.952;2023-12-07T13:48:39;4.70;99.90
14755;DHT22;7469;50.906;6.952;2023-12-07T13:51:08;4.70;99.90
14755;DHT22;7469;50.906;6.952;2023-12-07T13:53:36;4.70;99.90
14755;DHT22;7469;50.906;6.952;2023-12-07T13:56:05;4.70;99.90
14755;DHT22;7469;50.906;6.952;2023-12-07T13:58:36;4.70;99.90
14755;DHT22;7469;50.906;6.952;2023-12-07T14:01:06;4.60;99.90
14755;DHT22;7469;50.906;6.952;2023-12-07T14:03:34;4.50;99.90
14755;DHT22;7469;50.906;6.952;2023-12-07T14:06:04;4.50;99.90
14755;DHT22;7469;50.906;6.952;2023-12-07T14:08:48;4.50;99.90
14755;DHT22;7469;50.906;6.952;2023-12-07T14:11:16;4.50;99.90
14755;DHT22;7469;50.906;6.952;2023-12-07T14:13:46;4.50;99.90
14755;DHT22;7469;50.906;6.952;2023-12-07T14:16:15;4.40;99.90
14755;DHT22;7469;50.906;6.952;2023-12-07T14:18:57;4.30;99.90
14755;DHT22;7469;50.906;6.952;2023-12-07T14:21:41;4.30;99.90
14755;DHT22;7469;50.906;6.952;2023-12-07T14:24:22;4.30;99.90
14755;DHT22;7469;50.906;6.952;2023-12-07T14:26:50;4.20;99.90
14755;DHT22;7469;50.906;6.952;2023-12-07T14:29:19;4.20;99.90
14755;DHT22;7469;50.906;6.952;2023-12-07T14:31:53;4.20;99.90
14755;DHT22;7469;50.906;6.952;2023-12-07T14:34:21;4.20;99.90
14755;DHT22;7469;50.906;6.952;2023-12-07T14:37:00;4.10;99.90
14755;DHT22;7469;50.906;6.952;2023-12-07T14:39:29;4.10;99.90
14755;DHT22;7469;50.906;6.952;2023-12-07T14:41:57;4.00;99.90
14755;DHT22;7469;50.906;6.952;2023-12-07T14:44:26;4.00;99.90
14755;DHT22;7469;50.906;6.952;2023-12-07T14:46:56;4.00;99.90
14755;DHT22;7469;50.906;6.952;2023-12-07T14:49:25;4.00;99.90
14755;DHT22;7469;50.906;6.952;2023-12-07T14:51:54;3.90;99.90
14755;DHT22;7469;50.906;6.952;2023-12-07T14:54:25;3.90;99.90
14755;DHT22;7469;50.906;6.952;2023-12-07T14:56:56;3.80;99.90
14755;DHT22;7469;50.906;6.952;2023-12-07T14:59:26;3.80;99.90
14755;DHT22;7469;50.906;6.952;2023-12-07T15:01:54;3.70;99.90
14755;DHT22;7469;50.906;6.952;2023-12-07T15:04:22;3.60;99.90
14755;DHT22;7469;50.906;6.952;2023-12-07T15:07:00;3.60;99.90
14755;DHT22;7469;50.906;6.952;2023-12-07T15:09:28;3.60;99.90
14755;DHT22;7469;50.906;6.952;2023-12-07T15:11:57;3.50;99.90
14755;DHT22;7469;50.906;6.952;2023-12-07T15:14:26;3.50;99.90
14755;DHT22;7469;50.906;6.952;2023-12-07T15:17:04;3.40;99.90
14755;DHT22;7469;50.906;6.952;2023-12-07T15:19:34;3.40;99.90
14755;DHT22;7469;50.906;6.952;2023-12-07T15:22:06;3.40;99.90
14755;DHT22;7469;50.906;6.952;2023-12-07T15:24:35;3.40;99.90
14755;DHT22;7469;50.906;6.952;2023-12-07T15:27:06;3.30;99.90
14755;DHT22;7469;50.906;6.952;2023-12-07T15:29:35;3.30;99.90
14755;DHT22;7469;50.906;6.952;2023-12-07T15:32:06;3.30;99.90
14755;DHT22;7469;50.906;6.952;2023-12-07T15:34:34;3.30;99.90
14755;DHT22;7469;50.906;6.952;2023-12-07T15:37:07;3.30;99.90
14755;DHT22;7469;50.906;6.952;2023-12-07T15:39:36;3.20;99.90
14755;DHT22;7469;50.906;6.952;2023-12-07T15:42:05;3.20;99.90
14755;DHT22;7469;50.906;6.952;2023-12-07T15:44:33;3.20;99.90
14755;DHT22;7469;50.906;6.952;2023-12-07T15:47:03;3.20;99.90
14755;DHT22;7469;50.906;6.952;2023-12-07T15:49:31;3.10;99.90
14755;DHT22;7469;50.906;6.952;2023-12-07T15:51:59;3.10;99.90
14755;DHT22;7469;50.906;6.952;2023-12-07T15:54:28;3.00;99.90
14755;DHT22;7469;50.906;6.952;2023-12-07T15:57:05;3.00;99.90
14755;DHT22;7469;50.906;6.952;2023-12-07T15:59:35;3.00;99.90
14755;DHT22;7469;50.906;6.952;2023-12-07T16:02:05;2.90;99.90
14755;DHT22;7469;50.906;6.952;2023-12-07T16:04:33;2.90;99.90
14755;DHT22;7469;50.906;6.952;2023-12-07T16:07:04;2.90;99.90
14755;DHT22;7469;50.906;6.952;2023-12-07T16:09:36;2.80;99.90
14755;DHT22;7469;50.906;6.952;2023-12-07T16:12:05;2.80;99.90
14755;DHT22;7469;50.906;6.952;2023-12-07T16:14:35;2.80;99.90
14755;DHT22;7469;50.906;6.952;2023-12-07T16:17:06;2.70;99.90